Time;durP1;ratioP1;P1;durP2;ratioP2;P2;SDS_P1;SDS_P2;PMS_P1;PMS_P2;Temp;Humidity;BMP_temperature;BMP_pressure;BME280_temperature;BME280_humidity;BME280_pressure;Samples;Min_cycle;Max_cycle;Signal;HPM_P1;HPM_P2
2022/01/09 00:02:06;;;;;;;11.27;5.93;;;-0.20;99.90;;;;;;5161650;28;20181;-49
2022/01/09 00:04:36;;;;;;;10.83;5.50;;;-0.20;99.90;;;;;;5149724;28;20442;-49
2022/01/09 00:07:07;;;;;;;9.23;5.67;;;-0.30;99.90;;;;;;5167482;28;20185;-49
2022/01/09 00:09:41;;;;;;;13.23;6.10;;;-0.30;99.90;;;;;;5152211;28;20668;-48
2022/01/09 00:12:12;;;;;;;11.13;5.60;;;-0.30;99.90;;;;;;5147169;28;20284;-49
2022/01/09 00:14:43;;;;;;;9.33;4.90;;;-0.30;99.90;;;;;;5151058;28;20438;-47
2022/01/09 00:17:13;;;;;;;11.67;6.23;;;-0.30;99.90;;;;;;5160010;28;20432;-50
2022/01/09 00:19:44;;;;;;;11.20;5.70;;;-0.30;99.90;;;;;;5164657;28;20665;-50
2022/01/09 00:22:18;;;;;;;8.77;6.27;;;-0.20;99.90;;;;;;5178842;28;20188;-51
2022/01/09 00:24:48;;;;;;;10.50;5.47;;;-0.30;99.90;;;;;;5152798;28;20189;-48
2022/01/09 00:27:19;;;;;;;9.90;5.77;;;-0.30;99.90;;;;;;5168088;28;20479;-50
2022/01/09 00:29:49;;;;;;;5.50;4.90;;;-0.30;99.90;;;;;;5169710;28;20208;-50
2022/01/09 00:32:20;;;;;;;6.70;5.30;;;-0.30;99.90;;;;;;5155889;28;20565;-49
2022/01/09 00:34:50;;;;;;;7.83;5.00;;;-0.30;99.90;;;;;;5165058;28;20236;-49
2022/01/09 00:37:21;;;;;;;7.27;5.27;;;-0.30;99.90;;;;;;5155999;28;20266;-48
2022/01/09 00:39:52;;;;;;;7.60;4.77;;;-0.40;99.90;;;;;;5161319;28;20242;-48
2022/01/09 00:42:22;;;;;;;5.00;4.50;;;-0.40;99.90;;;;;;5170775;28;20180;-50
2022/01/09 00:44:53;;;;;;;17.97;5.90;;;-0.40;99.90;;;;;;5169190;28;20185;-49
2022/01/09 00:47:23;;;;;;;17.20;5.80;;;-0.40;99.90;;;;;;5168791;28;20224;-48
2022/01/09 00:49:54;;;;;;;7.73;6.30;;;-0.40;99.90;;;;;;5148558;28;20213;-49
2022/01/09 00:52:25;;;;;;;7.43;5.57;;;-0.50;99.90;;;;;;5156742;28;20177;-49
2022/01/09 00:54:56;;;;;;;6.20;4.93;;;-0.40;99.90;;;;;;5168794;28;20180;-48
2022/01/09 00:57:26;;;;;;;8.70;5.63;;;-0.40;99.90;;;;;;5171456;28;20962;-48
2022/01/09 00:59:57;;;;;;;10.07;6.60;;;-0.50;99.90;;;;;;5163173;28;20680;-49
2022/01/09 01:02:27;;;;;;;6.70;4.93;;;-0.50;99.90;;;;;;5170423;28;20202;-49
2022/01/09 01:04:58;;;;;;;8.93;4.90;;;-0.40;99.90;;;;;;5164499;28;20256;-50
2022/01/09 01:07:28;;;;;;;9.40;5.63;;;-0.50;99.90;;;;;;5167902;28;20208;-49
2022/01/09 01:09:59;;;;;;;10.83;5.47;;;-0.60;99.90;;;;;;5152716;28;20291;-49
2022/01/09 01:12:33;;;;;;;10.10;5.83;;;-0.60;99.90;;;;;;5161545;28;20199;-48
2022/01/09 01:15:04;;;;;;;11.23;5.50;;;-0.60;99.90;;;;;;5154728;28;20216;-49
2022/01/09 01:17:36;;;;;;;8.53;5.87;;;-0.60;99.90;;;;;;5156480;28;20447;-49
2022/01/09 01:20:07;;;;;;;6.87;5.80;;;-0.60;99.90;;;;;;5149190;28;20433;-49
2022/01/09 01:22:39;;;;;;;7.47;5.97;;;-0.50;99.90;;;;;;5171881;28;20431;-49
2022/01/09 01:25:13;;;;;;;11.93;6.80;;;-0.60;99.90;;;;;;5166450;28;20424;-49
2022/01/09 01:27:44;;;;;;;12.40;5.80;;;-0.60;99.90;;;;;;5151102;28;20611;-50
2022/01/09 01:30:15;;;;;;;8.47;6.27;;;-0.60;99.90;;;;;;5167627;28;20589;-48
2022/01/09 01:32:45;;;;;;;10.43;6.43;;;-0.50;99.90;;;;;;5166702;28;20782;-49
2022/01/09 01:35:16;;;;;;;14.60;6.33;;;-0.60;99.90;;;;;;5169248;28;20470;-49
2022/01/09 01:37:46;;;;;;;11.63;6.30;;;-0.60;99.90;;;;;;5145375;28;20209;-48
2022/01/09 01:40:19;;;;;;;13.13;6.33;;;-0.50;99.90;;;;;;5148831;28;20246;-49
2022/01/09 01:42:50;;;;;;;14.07;6.10;;;-0.50;99.90;;;;;;5164434;28;20185;-49
2022/01/09 01:45:20;;;;;;;6.40;5.70;;;-0.50;99.90;;;;;;5150493;28;20451;-49
2022/01/09 01:47:51;;;;;;;8.30;5.37;;;-0.50;99.90;;;;;;5164050;28;20701;-48
2022/01/09 01:50:21;;;;;;;15.00;7.30;;;-0.50;99.90;;;;;;5147706;28;20203;-49
2022/01/09 01:52:54;;;;;;;10.20;6.03;;;-0.60;99.90;;;;;;5135582;28;20638;-49
2022/01/09 01:55:24;;;;;;;8.60;5.20;;;-0.50;99.90;;;;;;5168601;28;20187;-49
2022/01/09 01:57:55;;;;;;;12.33;6.87;;;-0.50;99.90;;;;;;5154879;28;20459;-50
2022/01/09 02:00:25;;;;;;;8.37;5.60;;;-0.60;99.90;;;;;;5164078;28;20193;-49
2022/01/09 02:02:56;;;;;;;7.50;5.63;;;-0.50;99.90;;;;;;5155599;28;20175;-49
2022/01/09 02:05:27;;;;;;;12.70;5.27;;;-0.50;99.90;;;;;;5169011;28;20232;-50
2022/01/09 02:08:00;;;;;;;7.10;5.50;;;-0.50;99.90;;;;;;5168392;28;20954;-50
2022/01/09 02:10:30;;;;;;;10.93;5.90;;;-0.50;99.90;;;;;;5162415;28;20208;-51
2022/01/09 02:13:01;;;;;;;16.70;6.00;;;-0.40;99.90;;;;;;5151056;28;20439;-49
2022/01/09 02:15:43;;;;;;;10.50;5.93;;;-0.40;99.90;;;;;;5156374;28;20695;-50
2022/01/09 02:18:15;;;;;;;9.77;5.23;;;-0.40;99.90;;;;;;5146636;28;20231;-48
2022/01/09 02:20:47;;;;;;;11.70;6.33;;;-0.40;99.90;;;;;;5163764;28;20428;-48
2022/01/09 02:23:19;;;;;;;11.90;5.97;;;-0.40;99.90;;;;;;5166280;28;20523;-50
2022/01/09 02:25:50;;;;;;;12.03;6.10;;;-0.40;99.90;;;;;;5168464;28;20908;-49
2022/01/09 02:28:21;;;;;;;10.97;5.70;;;-0.40;99.90;;;;;;5162156;28;20788;-49
2022/01/09 02:30:52;;;;;;;13.93;6.60;;;-0.40;99.90;;;;;;5160209;28;20568;-48
2022/01/09 02:33:22;;;;;;;10.20;6.70;;;-0.40;99.90;;;;;;5145292;28;20177;-49
2022/01/09 02:35:54;;;;;;;11.23;6.73;;;-0.40;99.90;;;;;;5151157;28;20640;-48
2022/01/09 02:38:25;;;;;;;12.20;6.83;;;-0.40;99.90;;;;;;5150830;28;20223;-49
2022/01/09 02:40:55;;;;;;;12.87;5.77;;;-0.50;99.90;;;;;;5134050;28;20464;-48
2022/01/09 02:43:28;;;;;;;7.43;5.63;;;-0.40;99.90;;;;;;5162759;28;20645;-49
2022/01/09 02:46:16;;;;;;;11.47;5.80;;;-0.40;99.90;;;;;;5151882;28;20179;-50
2022/01/09 02:48:47;;;;;;;15.40;6.10;;;-0.40;99.90;;;;;;5169046;28;20899;-49
2022/01/09 02:51:18;;;;;;;6.67;5.67;;;-0.40;99.90;;;;;;5170907;28;20487;-49
2022/01/09 02:53:56;;;;;;;11.23;6.50;;;-0.40;99.90;;;;;;5169527;28;20243;-48
2022/01/09 02:56:26;;;;;;;12.23;5.80;;;-0.40;99.90;;;;;;5156889;28;20515;-49
2022/01/09 02:58:57;;;;;;;8.90;5.27;;;-0.30;99.90;;;;;;5148931;28;20547;-49
2022/01/09 03:01:27;;;;;;;11.53;6.07;;;-0.40;99.90;;;;;;5163754;28;21234;-49
2022/01/09 03:03:58;;;;;;;9.23;6.43;;;-0.40;99.90;;;;;;5152125;28;20209;-48
2022/01/09 03:06:28;;;;;;;8.60;6.00;;;-0.40;99.90;;;;;;5164367;28;20228;-49
2022/01/09 03:09:01;;;;;;;9.77;6.60;;;-0.40;99.90;;;;;;5162535;28;20209;-48
2022/01/09 03:11:32;;;;;;;6.70;5.90;;;-0.40;99.90;;;;;;5165311;28;20215;-50
2022/01/09 03:14:02;;;;;;;9.50;5.87;;;-0.40;99.90;;;;;;5148196;28;20440;-48
2022/01/09 03:16:34;;;;;;;10.87;6.30;;;-0.40;99.90;;;;;;5165909;28;20436;-48
2022/01/09 03:19:04;;;;;;;16.30;6.33;;;-0.40;99.90;;;;;;5150371;28;20205;-48
2022/01/09 03:21:35;;;;;;;11.93;6.07;;;-0.40;99.90;;;;;;5170491;28;20436;-50
2022/01/09 03:24:05;;;;;;;13.80;6.87;;;-0.40;99.90;;;;;;5165624;28;20207;-50
2022/01/09 03:26:36;;;;;;;8.93;4.70;;;-0.40;99.90;;;;;;5174734;28;20185;-49
2022/01/09 03:29:06;;;;;;;15.80;5.90;;;-0.40;99.90;;;;;;5147062;28;20502;-48
2022/01/09 03:31:37;;;;;;;9.20;5.53;;;-0.40;99.90;;;;;;5164561;28;20235;-48
2022/01/09 03:34:07;;;;;;;8.57;6.50;;;-0.40;99.90;;;;;;5165903;28;20227;-49
2022/01/09 03:36:38;;;;;;;10.10;6.90;;;-0.50;99.90;;;;;;5152197;28;20901;-48
2022/01/09 03:39:08;;;;;;;6.50;5.50;;;-0.40;99.90;;;;;;5147568;28;20344;-49
2022/01/09 03:41:39;;;;;;;5.57;5.00;;;-0.40;99.90;;;;;;5155011;28;20184;-49
2022/01/09 03:44:09;;;;;;;8.57;6.47;;;-0.40;99.90;;;;;;5156409;28;20251;-48
2022/01/09 03:46:40;;;;;;;8.97;5.10;;;-0.50;99.90;;;;;;5172709;28;20190;-49
2022/01/09 03:49:10;;;;;;;8.53;5.80;;;-0.50;99.90;;;;;;5165998;28;20236;-49
2022/01/09 03:51:44;;;;;;;16.50;5.70;;;-0.50;99.90;;;;;;5146647;28;20209;-49
2022/01/09 03:54:14;;;;;;;8.50;6.47;;;-0.40;99.90;;;;;;5170737;28;20691;-48
2022/01/09 03:56:45;;;;;;;10.93;5.13;;;-0.50;99.90;;;;;;5168975;28;20435;-48
2022/01/09 03:59:16;;;;;;;12.00;5.90;;;-0.50;99.90;;;;;;5143577;28;20197;-49
2022/01/09 04:01:47;;;;;;;12.77;6.47;;;-0.50;99.90;;;;;;5165854;28;20239;-49
2022/01/09 04:04:17;;;;;;;9.47;5.60;;;-0.50;99.90;;;;;;5151487;28;20439;-49
2022/01/09 04:06:50;;;;;;;16.00;6.90;;;-0.50;99.90;;;;;;5167592;28;20185;-48
2022/01/09 04:09:28;;;;;;;13.93;5.67;;;-0.50;99.90;;;;;;5167935;28;20200;-49
2022/01/09 04:12:03;;;;;;;8.07;5.57;;;-0.50;99.90;;;;;;5167265;28;20581;-49
2022/01/09 04:14:34;;;;;;;9.00;5.90;;;-0.50;99.90;;;;;;5167190;28;20801;-48
2022/01/09 04:17:07;;;;;;;9.40;4.97;;;-0.50;99.90;;;;;;5148534;28;20467;-48
2022/01/09 04:19:39;;;;;;;7.67;5.47;;;-0.40;99.90;;;;;;5167972;28;20189;-48
2022/01/09 04:22:09;;;;;;;10.57;5.73;;;-0.50;99.90;;;;;;5143612;28;20432;-48
2022/01/09 04:24:40;;;;;;;20.90;5.57;;;-0.50;99.90;;;;;;5169267;28;20560;-48
2022/01/09 04:27:10;;;;;;;11.20;5.13;;;-0.50;99.90;;;;;;5154569;28;20275;-48
2022/01/09 04:29:41;;;;;;;7.03;5.10;;;-0.60;99.90;;;;;;5167086;28;20633;-48
2022/01/09 04:32:12;;;;;;;6.33;5.60;;;-0.60;99.90;;;;;;5152259;28;20652;-49
2022/01/09 04:34:42;;;;;;;9.90;5.70;;;-0.50;99.90;;;;;;5151185;28;20260;-49
2022/01/09 04:37:13;;;;;;;7.53;4.33;;;-0.60;99.90;;;;;;5162654;28;20212;-48
2022/01/09 04:39:46;;;;;;;10.70;4.90;;;-0.50;99.90;;;;;;5166281;28;20195;-49
2022/01/09 04:42:17;;;;;;;7.77;5.23;;;-0.60;99.90;;;;;;5161180;28;20193;-49
2022/01/09 04:44:48;;;;;;;12.63;5.23;;;-0.60;99.90;;;;;;5171712;28;20475;-49
2022/01/09 04:47:18;;;;;;;5.50;4.10;;;-0.50;99.90;;;;;;5164751;28;20471;-50
2022/01/09 04:49:50;;;;;;;6.97;4.77;;;-0.50;99.90;;;;;;5146324;28;20294;-49
2022/01/09 04:52:25;;;;;;;6.63;4.53;;;-0.50;99.90;;;;;;5170112;28;20212;-50
2022/01/09 04:54:55;;;;;;;10.03;4.83;;;-0.50;99.90;;;;;;5162333;28;20434;-50
2022/01/09 04:57:26;;;;;;;4.70;3.80;;;-0.50;99.90;;;;;;5149728;28;20424;-49
2022/01/09 04:59:56;;;;;;;8.80;4.07;;;-0.50;99.90;;;;;;5157061;28;20295;-49
2022/01/09 05:02:27;;;;;;;9.43;5.07;;;-0.40;99.90;;;;;;5168907;28;20188;-49
2022/01/09 05:04:57;;;;;;;6.57;4.57;;;-0.50;99.90;;;;;;5166360;28;20188;-49
2022/01/09 05:07:28;;;;;;;5.70;4.40;;;-0.40;99.90;;;;;;5162125;28;20189;-49
2022/01/09 05:09:59;;;;;;;10.83;5.20;;;-0.50;99.90;;;;;;5163293;28;20241;-50
2022/01/09 05:12:29;;;;;;;10.17;4.10;;;-0.50;99.90;;;;;;5171458;28;20680;-47
2022/01/09 05:15:00;;;;;;;6.80;4.17;;;-0.50;99.90;;;;;;5178405;28;20230;-50
2022/01/09 05:17:31;;;;;;;12.27;4.90;;;-0.50;99.90;;;;;;5146456;28;20207;-48
2022/01/09 05:20:03;;;;;;;7.00;4.53;;;-0.50;99.90;;;;;;5148356;28;20518;-49
2022/01/09 05:22:33;;;;;;;3.97;3.67;;;-0.40;99.90;;;;;;5163334;28;20490;-47
2022/01/09 05:25:08;;;;;;;4.77;4.30;;;-0.40;99.90;;;;;;5163636;28;20838;-47
2022/01/09 05:27:38;;;;;;;5.33;3.80;;;-0.50;99.90;;;;;;5166049;28;20321;-49
2022/01/09 05:30:09;;;;;;;7.23;4.53;;;-0.50;99.90;;;;;;5161743;28;20519;-49
2022/01/09 05:32:40;;;;;;;4.33;3.73;;;-0.50;99.90;;;;;;5162993;28;20275;-49
2022/01/09 05:35:10;;;;;;;11.10;4.27;;;-0.40;99.90;;;;;;5147003;28;20550;-48
2022/01/09 05:37:41;;;;;;;11.80;4.50;;;-0.40;99.90;;;;;;5164610;28;20196;-48
2022/01/09 05:40:12;;;;;;;7.40;3.87;;;-0.40;99.90;;;;;;5161701;28;20184;-49
2022/01/09 05:42:43;;;;;;;8.63;4.23;;;-0.40;99.90;;;;;;5147435;28;20177;-48
2022/01/09 05:45:17;;;;;;;5.00;4.40;;;-0.40;99.90;;;;;;5164462;28;20509;-50
2022/01/09 05:47:47;;;;;;;8.33;4.53;;;-0.40;99.90;;;;;;5167610;28;20192;-49
2022/01/09 05:50:18;;;;;;;8.53;4.83;;;-0.40;99.90;;;;;;5141482;28;20937;-48
2022/01/09 05:52:48;;;;;;;11.27;4.77;;;-0.40;99.90;;;;;;5152925;28;20297;-48
2022/01/09 05:55:19;;;;;;;7.83;5.03;;;-0.40;99.90;;;;;;5148737;28;20208;-48
2022/01/09 05:57:49;;;;;;;5.60;4.10;;;-0.40;99.90;;;;;;5164941;28;20231;-48
2022/01/09 06:00:20;;;;;;;14.20;4.00;;;-0.40;99.90;;;;;;5165418;28;20196;-48
2022/01/09 06:02:51;;;;;;;8.40;5.10;;;-0.40;99.90;;;;;;5165887;28;20256;-48
2022/01/09 06:05:23;;;;;;;4.23;3.93;;;-0.40;99.90;;;;;;5145784;28;20181;-48
2022/01/09 06:07:53;;;;;;;9.07;4.07;;;-0.30;99.90;;;;;;5159726;28;20235;-48
2022/01/09 06:10:24;;;;;;;4.87;4.13;;;-0.20;99.90;;;;;;5159692;28;20914;-47
2022/01/09 06:12:54;;;;;;;7.33;4.40;;;-0.30;99.90;;;;;;5148812;28;20183;-49
2022/01/09 06:15:25;;;;;;;7.43;3.90;;;-0.30;99.90;;;;;;5149159;28;20215;-47
2022/01/09 06:17:56;;;;;;;7.93;4.97;;;-0.30;99.90;;;;;;5163991;28;20239;-47
2022/01/09 06:20:26;;;;;;;8.40;5.17;;;-0.30;99.90;;;;;;5144734;28;20610;-47
2022/01/09 06:22:57;;;;;;;6.33;4.33;;;-0.30;99.90;;;;;;5160678;28;20236;-48
2022/01/09 06:25:27;;;;;;;6.40;4.40;;;-0.30;99.90;;;;;;5150715;28;20212;-49
2022/01/09 06:28:00;;;;;;;6.30;4.83;;;-0.30;99.90;;;;;;5165405;28;20710;-49
2022/01/09 06:30:31;;;;;;;8.93;4.40;;;-0.20;99.90;;;;;;5145740;28;20215;-46
2022/01/09 06:33:01;;;;;;;5.33;4.33;;;-0.20;99.90;;;;;;5143445;28;20788;-49
2022/01/09 06:35:32;;;;;;;6.13;4.17;;;-0.30;99.90;;;;;;5165832;28;20601;-49
2022/01/09 06:38:03;;;;;;;4.73;4.30;;;-0.20;99.90;;;;;;5168871;28;20209;-50
2022/01/09 06:40:34;;;;;;;5.20;4.37;;;0.00;99.90;;;;;;5164425;28;20185;-48
2022/01/09 06:43:05;;;;;;;7.30;4.80;;;-0.10;99.90;;;;;;5165222;28;20528;-48
2022/01/09 06:45:36;;;;;;;14.97;5.30;;;-0.10;99.90;;;;;;5164468;28;20680;-49
2022/01/09 06:48:06;;;;;;;7.90;4.23;;;0.10;99.90;;;;;;5143434;28;20503;-48
2022/01/09 06:50:37;;;;;;;8.80;4.13;;;0.10;99.90;;;;;;5165265;28;20192;-47
2022/01/09 06:53:07;;;;;;;8.33;4.07;;;0.20;99.90;;;;;;5166233;28;20181;-51
2022/01/09 06:55:38;;;;;;;5.57;5.03;;;0.10;99.90;;;;;;5167286;28;20228;-48
2022/01/09 06:58:09;;;;;;;6.90;4.23;;;0.10;99.90;;;;;;5126251;28;20217;-49
2022/01/09 07:00:39;;;;;;;7.30;4.43;;;0.00;99.90;;;;;;5160903;28;20203;-48
2022/01/09 07:03:10;;;;;;;11.77;4.43;;;0.10;99.90;;;;;;5170338;28;20300;-48
2022/01/09 07:05:40;;;;;;;11.77;5.23;;;0.00;99.90;;;;;;5175579;28;20191;-48
2022/01/09 07:08:11;;;;;;;4.47;4.03;;;0.10;99.90;;;;;;5171211;28;20217;-47
2022/01/09 07:10:41;;;;;;;6.87;4.50;;;0.10;99.90;;;;;;5167558;28;20252;-47
2022/01/09 07:13:12;;;;;;;10.13;4.07;;;0.20;99.90;;;;;;5162149;28;20567;-48
2022/01/09 07:15:44;;;;;;;6.83;4.40;;;0.20;99.90;;;;;;5169717;28;20180;-48
2022/01/09 07:18:14;;;;;;;7.50;4.07;;;0.20;99.90;;;;;;5168046;28;20502;-48
2022/01/09 07:20:45;;;;;;;10.37;5.10;;;0.20;99.90;;;;;;5155011;28;20439;-49
2022/01/09 07:23:16;;;;;;;13.07;4.90;;;0.10;99.90;;;;;;5168880;28;20216;-48
2022/01/09 07:25:47;;;;;;;10.07;5.10;;;0.20;99.90;;;;;;5169091;28;20284;-48
2022/01/09 07:28:17;;;;;;;4.70;4.30;;;0.10;99.90;;;;;;5156893;28;20216;-47
2022/01/09 07:30:48;;;;;;;15.80;6.20;;;0.20;99.90;;;;;;5163665;28;20255;-49
2022/01/09 07:33:18;;;;;;;9.23;4.77;;;0.20;99.90;;;;;;5167021;28;20284;-48
2022/01/09 07:35:49;;;;;;;7.40;4.87;;;0.30;99.90;;;;;;5168499;28;20208;-48
2022/01/09 07:38:20;;;;;;;9.50;5.27;;;0.30;99.90;;;;;;5137065;28;20216;-47
2022/01/09 07:40:51;;;;;;;5.90;4.77;;;0.30;99.90;;;;;;5151101;28;20189;-48
2022/01/09 07:43:22;;;;;;;4.27;3.97;;;0.30;99.90;;;;;;5167410;28;20193;-49
2022/01/09 07:45:52;;;;;;;8.90;4.97;;;0.30;99.90;;;;;;5166090;28;20440;-48
2022/01/09 07:48:23;;;;;;;5.13;4.30;;;0.30;99.90;;;;;;5165558;28;20232;-47
2022/01/09 07:50:54;;;;;;;9.90;4.73;;;0.30;99.90;;;;;;5152604;28;20193;-48
2022/01/09 07:53:25;;;;;;;6.63;5.00;;;0.30;99.90;;;;;;5167002;28;20459;-48
2022/01/09 07:55:55;;;;;;;12.00;5.73;;;0.40;99.90;;;;;;5168447;28;20181;-48
2022/01/09 07:58:26;;;;;;;7.83;5.43;;;0.50;99.90;;;;;;5146554;28;20217;-49
2022/01/09 08:00:57;;;;;;;10.10;5.20;;;0.50;99.90;;;;;;5161974;28;22300;-48
2022/01/09 08:03:27;;;;;;;8.60;5.30;;;0.50;99.90;;;;;;5152082;28;20212;-48
2022/01/09 08:05:58;;;;;;;11.70;5.73;;;0.50;99.90;;;;;;5163344;28;21103;-47
2022/01/09 08:08:28;;;;;;;10.17;6.00;;;0.50;99.90;;;;;;5145273;28;20227;-48
2022/01/09 08:10:59;;;;;;;8.33;5.70;;;0.60;99.90;;;;;;5163372;28;20296;-50
2022/01/09 08:13:29;;;;;;;14.87;5.77;;;0.60;99.90;;;;;;5163644;28;20656;-51
2022/01/09 08:16:00;;;;;;;7.53;5.00;;;0.60;99.90;;;;;;5162052;28;20200;-49
2022/01/09 08:18:30;;;;;;;4.73;4.33;;;0.60;99.90;;;;;;5170790;28;20202;-48
2022/01/09 08:21:01;;;;;;;9.40;5.23;;;0.70;99.90;;;;;;5160665;28;20272;-49
2022/01/09 08:23:31;;;;;;;6.17;5.40;;;0.70;99.90;;;;;;5144355;28;20189;-49
2022/01/09 08:26:02;;;;;;;7.17;5.00;;;0.70;99.90;;;;;;5148226;28;20196;-48
2022/01/09 08:28:33;;;;;;;10.80;5.50;;;0.70;99.90;;;;;;5160343;28;20233;-48
2022/01/09 08:31:03;;;;;;;10.30;5.10;;;0.70;99.90;;;;;;5161982;28;20530;-48
2022/01/09 08:33:34;;;;;;;9.07;5.97;;;0.70;99.90;;;;;;5134835;28;20348;-49
2022/01/09 08:36:05;;;;;;;8.80;5.73;;;0.80;99.90;;;;;;5161299;28;20181;-49
2022/01/09 08:38:35;;;;;;;6.40;5.13;;;0.80;99.90;;;;;;5163521;28;20611;-46
2022/01/09 08:41:06;;;;;;;9.40;5.30;;;0.80;99.90;;;;;;5159752;28;20443;-47
2022/01/09 08:43:37;;;;;;;9.90;5.70;;;0.80;99.90;;;;;;5160980;28;20650;-48
2022/01/09 08:46:08;;;;;;;6.77;5.33;;;0.90;99.90;;;;;;5162955;28;20201;-46
2022/01/09 08:48:39;;;;;;;8.70;6.10;;;1.00;99.90;;;;;;5149263;28;20455;-49
2022/01/09 08:51:09;;;;;;;7.00;5.10;;;1.00;99.90;;;;;;5160007;28;20456;-48
2022/01/09 08:53:41;;;;;;;9.50;5.43;;;1.00;99.90;;;;;;5159131;28;20190;-48
2022/01/09 08:56:12;;;;;;;7.47;5.63;;;1.10;99.90;;;;;;5150255;28;20645;-47
2022/01/09 08:58:42;;;;;;;7.33;5.70;;;1.10;99.90;;;;;;5147063;28;20464;-48
2022/01/09 09:01:13;;;;;;;11.20;5.13;;;1.20;99.90;;;;;;5145940;28;20684;-47
2022/01/09 09:03:44;;;;;;;12.20;5.20;;;1.20;99.90;;;;;;5161501;28;20282;-48
2022/01/09 09:06:15;;;;;;;7.60;5.30;;;1.20;99.90;;;;;;5143402;28;20732;-49
2022/01/09 09:08:46;;;;;;;5.10;4.60;;;1.30;99.90;;;;;;5163336;28;21060;-48
2022/01/09 09:11:16;;;;;;;7.77;4.73;;;1.30;99.90;;;;;;5164946;28;20516;-47
2022/01/09 09:13:47;;;;;;;7.60;4.83;;;1.30;99.90;;;;;;5165178;28;20191;-47
2022/01/09 09:16:18;;;;;;;8.07;4.90;;;1.40;99.90;;;;;;5166889;28;20551;-48
2022/01/09 09:18:49;;;;;;;8.83;4.93;;;1.40;99.90;;;;;;5145996;28;20209;-49
2022/01/09 09:21:19;;;;;;;7.83;4.23;;;1.50;99.90;;;;;;5140390;28;20191;-48
2022/01/09 09:23:50;;;;;;;5.00;4.50;;;1.50;99.90;;;;;;5160740;28;20455;-48
2022/01/09 09:26:21;;;;;;;7.07;5.17;;;1.50;99.90;;;;;;5160375;28;20205;-48
2022/01/09 09:28:52;;;;;;;6.90;4.57;;;1.60;99.90;;;;;;5143934;28;20618;-49
2022/01/09 09:31:22;;;;;;;11.27;5.70;;;1.50;99.90;;;;;;5158320;28;20527;-48
2022/01/09 09:33:53;;;;;;;6.57;4.73;;;1.50;99.90;;;;;;5160683;28;20177;-50
2022/01/09 09:36:24;;;;;;;7.17;5.10;;;1.50;99.90;;;;;;5161364;28;20277;-48
2022/01/09 09:38:54;;;;;;;6.63;4.20;;;1.50;99.90;;;;;;5154618;28;20203;-48
2022/01/09 09:41:25;;;;;;;9.73;4.73;;;1.60;99.90;;;;;;5140739;28;20488;-49
2022/01/09 09:43:56;;;;;;;13.50;4.77;;;1.60;99.90;;;;;;5157958;28;20264;-49
2022/01/09 09:46:26;;;;;;;9.87;4.30;;;1.70;99.90;;;;;;5172482;28;20552;-50
2022/01/09 09:48:57;;;;;;;5.33;4.83;;;1.70;99.90;;;;;;5168721;28;20219;-51
2022/01/09 09:51:29;;;;;;;9.83;4.20;;;1.80;99.90;;;;;;5160955;28;20215;-50
2022/01/09 09:54:00;;;;;;;9.50;4.40;;;1.80;99.90;;;;;;5139522;28;20192;-50
2022/01/09 09:56:30;;;;;;;5.93;4.30;;;1.80;99.90;;;;;;5141478;28;21075;-48
2022/01/09 09:59:01;;;;;;;8.17;4.57;;;1.80;99.90;;;;;;5159267;28;20204;-50
2022/01/09 10:01:35;;;;;;;7.67;5.17;;;1.90;99.90;;;;;;5150090;28;20189;-48
2022/01/09 10:04:08;;;;;;;8.43;5.07;;;1.80;99.90;;;;;;5169306;28;20853;-48
2022/01/09 10:06:47;;;;;;;7.93;4.90;;;1.90;99.90;;;;;;5147251;28;20444;-48
2022/01/09 10:09:22;;;;;;;6.40;4.67;;;1.90;99.90;;;;;;5145405;28;21066;-48
2022/01/09 10:11:55;;;;;;;9.80;5.70;;;1.90;99.90;;;;;;5165199;28;20475;-48
2022/01/09 10:14:31;;;;;;;5.27;3.70;;;1.90;99.90;;;;;;5167304;28;20442;-48
2022/01/09 10:17:21;;;;;;;10.13;4.93;;;1.90;99.90;;;;;;5153933;28;20436;-48
2022/01/09 10:19:57;;;;;;;4.87;4.47;;;2.00;99.90;;;;;;5166195;28;20455;-50
2022/01/09 10:22:36;;;;;;;6.27;4.20;;;2.00;99.90;;;;;;5166665;28;20494;-48
2022/01/09 10:25:17;;;;;;;5.40;4.47;;;2.10;99.90;;;;;;5164511;28;20443;-48
2022/01/09 10:27:49;;;;;;;8.13;5.50;;;2.20;99.90;;;;;;5164138;28;20951;-48
2022/01/09 10:30:23;;;;;;;9.60;5.00;;;2.30;99.90;;;;;;5165752;28;20448;-51
2022/01/09 10:32:56;;;;;;;4.33;3.93;;;2.40;99.90;;;;;;5165412;28;20436;-50
2022/01/09 10:35:28;;;;;;;5.30;4.50;;;2.50;99.90;;;;;;5165371;28;20447;-48
2022/01/09 10:38:12;;;;;;;5.70;4.77;;;2.50;99.90;;;;;;5155150;28;20495;-50
2022/01/09 10:40:45;;;;;;;4.80;3.93;;;2.60;99.90;;;;;;5174532;28;20521;-48
2022/01/09 10:43:21;;;;;;;8.83;4.40;;;2.70;99.90;;;;;;5163675;28;20475;-48
2022/01/09 10:45:59;;;;;;;8.33;4.17;;;2.60;99.90;;;;;;5145149;28;20525;-49
2022/01/09 10:48:36;;;;;;;8.30;4.27;;;2.70;99.90;;;;;;5169807;28;20479;-49
2022/01/09 10:51:09;;;;;;;15.70;4.40;;;2.80;99.90;;;;;;5147277;28;20955;-49
2022/01/09 10:53:43;;;;;;;5.77;4.10;;;2.80;99.90;;;;;;5166113;28;20444;-51
2022/01/09 10:56:17;;;;;;;6.53;4.30;;;2.80;99.90;;;;;;5168672;28;20959;-50
2022/01/09 10:58:51;;;;;;;7.20;4.13;;;2.80;99.90;;;;;;5169070;28;20498;-49
2022/01/09 11:01:27;;;;;;;6.50;4.53;;;2.80;99.90;;;;;;5138785;28;20459;-50
2022/01/09 11:04:07;;;;;;;7.63;4.67;;;2.80;99.90;;;;;;5147363;28;20501;-49
2022/01/09 11:06:43;;;;;;;10.77;5.00;;;2.80;99.90;;;;;;5162766;28;20942;-50
2022/01/09 11:09:14;;;;;;;8.83;4.90;;;2.80;99.90;;;;;;5144499;28;20474;-50
2022/01/09 11:11:47;;;;;;;5.77;4.70;;;2.80;99.90;;;;;;5144394;28;20471;-50
2022/01/09 11:14:20;;;;;;;7.10;4.77;;;2.80;99.90;;;;;;5147931;28;20335;-50
2022/01/09 11:16:53;;;;;;;9.93;5.20;;;2.90;99.90;;;;;;5168820;28;20436;-48
2022/01/09 11:19:25;;;;;;;5.47;4.20;;;2.90;99.90;;;;;;5151058;28;20467;-49
2022/01/09 11:22:01;;;;;;;5.13;4.43;;;2.90;99.90;;;;;;5166264;28;20440;-50
2022/01/09 11:25:12;;;;;;;3.80;3.50;;;3.00;99.90;;;;;;5165435;28;20568;-47
2022/01/09 11:27:48;;;;;;;6.77;4.00;;;2.90;99.90;;;;;;5169025;28;20466;-50
2022/01/09 11:30:28;;;;;;;6.53;4.90;;;2.90;99.90;;;;;;5164419;28;20455;-48
2022/01/09 11:33:26;;;;;;;6.37;5.33;;;3.00;99.90;;;;;;5162607;28;20505;-49
2022/01/09 11:36:29;;;;;;;6.50;4.77;;;3.10;99.90;;;;;;5154249;28;20535;-50
2022/01/09 11:39:20;;;;;;;7.87;4.60;;;3.10;99.90;;;;;;5151554;28;20486;-50
2022/01/09 11:42:08;;;;;;;9.33;5.93;;;3.20;99.90;;;;;;5149930;28;20453;-50
2022/01/09 11:44:50;;;;;;;15.17;8.50;;;3.20;99.90;;;;;;5149396;28;20970;-50
2022/01/09 11:47:22;;;;;;;8.53;5.47;;;3.20;99.90;;;;;;5129897;28;21003;-50
2022/01/09 11:49:53;;;;;;;9.77;7.00;;;3.20;99.90;;;;;;5149570;28;20518;-51
2022/01/09 11:52:26;;;;;;;8.43;5.37;;;3.20;99.90;;;;;;5150654;28;20468;-50
2022/01/09 11:55:01;;;;;;;7.33;3.87;;;3.30;99.90;;;;;;5148660;28;20464;-49
2022/01/09 11:57:45;;;;;;;10.10;4.23;;;3.30;99.90;;;;;;5155914;28;21266;-49
2022/01/09 12:00:32;;;;;;;5.60;4.27;;;3.20;99.90;;;;;;5156053;28;20533;-49
2022/01/09 12:03:25;;;;;;;6.43;4.13;;;3.20;99.90;;;;;;5148997;28;20487;-50
2022/01/09 12:06:00;;;;;;;6.17;4.37;;;3.20;99.90;;;;;;5150316;28;20850;-50
2022/01/09 12:08:52;;;;;;;9.33;5.00;;;3.20;99.90;;;;;;5164749;28;20517;-48
2022/01/09 12:12:00;;;;;;;5.30;4.80;;;3.20;99.90;;;;;;5159357;28;20503;-49
2022/01/09 12:14:51;;;;;;;5.40;3.47;;;3.30;99.90;;;;;;5166720;28;20527;-50
2022/01/09 12:17:21;;;;;;;5.17;4.47;;;3.40;99.90;;;;;;5163720;28;20528;-50
2022/01/09 12:20:07;;;;;;;4.80;4.30;;;3.60;99.90;;;;;;5152980;28;20558;-51
2022/01/09 12:22:41;;;;;;;5.33;4.40;;;3.60;99.90;;;;;;5161759;28;20529;-48
2022/01/09 12:25:28;;;;;;;4.80;4.40;;;3.60;99.90;;;;;;5164520;28;20499;-50
2022/01/09 12:28:17;;;;;;;8.13;4.23;;;3.50;99.90;;;;;;5160549;28;20486;-50
2022/01/09 12:30:59;;;;;;;8.23;4.70;;;3.50;99.90;;;;;;5159301;28;20530;-49
2022/01/09 12:33:31;;;;;;;5.03;4.30;;;3.60;99.90;;;;;;5162509;28;20516;-49
2022/01/09 12:36:11;;;;;;;7.93;4.27;;;3.70;99.90;;;;;;5156974;28;20450;-50
2022/01/09 12:38:49;;;;;;;6.93;4.30;;;3.70;99.90;;;;;;5154959;28;20451;-50
2022/01/09 12:41:26;;;;;;;5.10;4.70;;;3.80;99.90;;;;;;5139985;28;20436;-50
2022/01/09 12:44:05;;;;;;;4.60;4.20;;;3.90;99.90;;;;;;5165825;28;20919;-51
2022/01/09 12:46:40;;;;;;;7.23;4.60;;;3.90;99.90;;;;;;5157393;28;20999;-51
2022/01/09 12:49:14;;;;;;;6.00;3.90;;;3.90;99.90;;;;;;5161397;28;20475;-50
2022/01/09 12:51:47;;;;;;;3.57;3.27;;;4.00;99.90;;;;;;5138982;28;20985;-50
2022/01/09 12:54:18;;;;;;;12.47;5.60;;;4.00;99.90;;;;;;5151796;28;20502;-50
2022/01/09 12:56:48;;;;;;;4.13;3.80;;;4.00;99.90;;;;;;5162947;28;20936;-50
2022/01/09 12:59:22;;;;;;;7.40;4.20;;;3.90;99.90;;;;;;5141642;28;20468;-50
2022/01/09 13:01:53;;;;;;;7.73;3.40;;;3.90;99.90;;;;;;5161173;28;20204;-51
2022/01/09 13:04:23;;;;;;;12.50;5.73;;;3.90;99.90;;;;;;5156081;28;20796;-48
2022/01/09 13:06:57;;;;;;;5.67;4.90;;;3.90;99.90;;;;;;5160796;28;20301;-50
2022/01/09 13:09:31;;;;;;;4.50;4.10;;;3.90;99.90;;;;;;5161090;28;20197;-50
2022/01/09 13:12:03;;;;;;;4.60;3.60;;;3.80;99.90;;;;;;5142106;28;20464;-49
2022/01/09 13:14:44;;;;;;;6.00;4.70;;;3.80;99.90;;;;;;5140186;28;20983;-49
2022/01/09 13:17:17;;;;;;;5.50;4.00;;;3.80;99.90;;;;;;5141472;28;20428;-49